sensor_id;sensor_type;location;lat;lon;timestamp;temperature;humidity
54846;DHT22;53889;50.084;8.646;2023-02-16T00:01:21;3.00;99.90
54846;DHT22;53889;50.084;8.646;2023-02-16T00:03:49;3.00;99.90
54846;DHT22;53889;50.084;8.646;2023-02-16T00:06:16;3.00;99.90
54846;DHT22;53889;50.084;8.646;2023-02-16T00:08:44;3.00;99.90
54846;DHT22;53889;50.084;8.646;2023-02-16T00:11:15;3.00;99.90
54846;DHT22;53889;50.084;8.646;2023-02-16T00:14:00;3.00;99.90
54846;DHT22;53889;50.084;8.646;2023-02-16T00:16:28;3.00;99.90
54846;DHT22;53889;50.084;8.646;2023-02-16T00:18:54;3.00;99.90
54846;DHT22;53889;50.084;8.646;2023-02-16T00:21:21;3.10;99.90
54846;DHT22;53889;50.084;8.646;2023-02-16T00:23:49;3.00;99.90
54846;DHT22;53889;50.084;8.646;2023-02-16T00:26:18;3.00;99.90
54846;DHT22;53889;50.084;8.646;2023-02-16T00:28:48;3.00;99.90
54846;DHT22;53889;50.084;8.646;2023-02-16T00:31:17;3.10;99.90
54846;DHT22;53889;50.084;8.646;2023-02-16T00:33:46;3.10;99.90
54846;DHT22;53889;50.084;8.646;2023-02-16T00:36:12;3.00;99.90
54846;DHT22;53889;50.084;8.646;2023-02-16T00:38:40;3.10;99.90
54846;DHT22;53889;50.084;8.646;2023-02-16T00:41:15;3.10;99.90
54846;DHT22;53889;50.084;8.646;2023-02-16T00:44:03;3.10;99.90
54846;DHT22;53889;50.084;8.646;2023-02-16T00:46:30;3.00;99.90
54846;DHT22;53889;50.084;8.646;2023-02-16T00:48:58;3.00;99.90
54846;DHT22;53889;50.084;8.646;2023-02-16T00:51:25;3.00;99.90
54846;DHT22;53889;50.084;8.646;2023-02-16T00:53:51;3.00;99.90
54846;DHT22;53889;50.084;8.646;2023-02-16T00:56:19;3.00;99.90
54846;DHT22;53889;50.084;8.646;2023-02-16T00:58:48;3.00;99.90
54846;DHT22;53889;50.084;8.646;2023-02-16T01:01:16;3.00;99.90
54846;DHT22;53889;50.084;8.646;2023-02-16T01:03:46;3.20;99.90
54846;DHT22;53889;50.084;8.646;2023-02-16T01:06:14;3.00;99.90
54846;DHT22;53889;50.084;8.646;2023-02-16T01:09:08;3.00;99.90
54846;DHT22;53889;50.084;8.646;2023-02-16T01:11:53;2.90;99.90
54846;DHT22;53889;50.084;8.646;2023-02-16T01:14:20;2.90;99.90
54846;DHT22;53889;50.084;8.646;2023-02-16T01:16:47;2.90;99.90
54846;DHT22;53889;50.084;8.646;2023-02-16T01:19:13;2.90;99.90
54846;DHT22;53889;50.084;8.646;2023-02-16T01:21:41;2.90;99.90
54846;DHT22;53889;50.084;8.646;2023-02-16T01:24:08;2.90;99.90
54846;DHT22;53889;50.084;8.646;2023-02-16T01:26:38;2.90;99.90
54846;DHT22;53889;50.084;8.646;2023-02-16T01:29:06;2.90;99.90
54846;DHT22;53889;50.084;8.646;2023-02-16T01:31:36;3.00;99.90
54846;DHT22;53889;50.084;8.646;2023-02-16T01:34:03;2.90;99.90
54846;DHT22;53889;50.084;8.646;2023-02-16T01:36:33;2.80;99.90
54846;DHT22;53889;50.084;8.646;2023-02-16T01:39:03;2.80;99.90
54846;DHT22;53889;50.084;8.646;2023-02-16T01:41:43;2.80;99.90
54846;DHT22;53889;50.084;8.646;2023-02-16T01:44:14;2.90;99.90
54846;DHT22;53889;50.084;8.646;2023-02-16T01:46:46;2.90;99.90
54846;DHT22;53889;50.084;8.646;2023-02-16T01:49:16;2.90;99.90
54846;DHT22;53889;50.084;8.646;2023-02-16T01:51:49;2.90;99.90
54846;DHT22;53889;50.084;8.646;2023-02-16T01:54:28;2.90;99.90
54846;DHT22;53889;50.084;8.646;2023-02-16T01:57:02;2.80;99.90
54846;DHT22;53889;50.084;8.646;2023-02-16T01:59:38;2.90;99.90
54846;DHT22;53889;50.084;8.646;2023-02-16T02:02:11;2.80;99.90
54846;DHT22;53889;50.084;8.646;2023-02-16T02:04:43;2.80;99.90
54846;DHT22;53889;50.084;8.646;2023-02-16T02:07:33;2.70;99.90
54846;DHT22;53889;50.084;8.646;2023-02-16T02:10:08;2.80;99.90
54846;DHT22;53889;50.084;8.646;2023-02-16T02:12:45;2.70;99.90
54846;DHT22;53889;50.084;8.646;2023-02-16T02:15:16;2.80;99.90
54846;DHT22;53889;50.084;8.646;2023-02-16T02:17:44;2.80;99.90
54846;DHT22;53889;50.084;8.646;2023-02-16T02:20:17;2.70;99.90
54846;DHT22;53889;50.084;8.646;2023-02-16T02:29:04;2.70;99.90
54846;DHT22;53889;50.084;8.646;2023-02-16T02:31:44;2.70;99.90
54846;DHT22;53889;50.084;8.646;2023-02-16T02:34:19;2.70;99.90
54846;DHT22;53889;50.084;8.646;2023-02-16T02:36:54;2.70;99.90
54846;DHT22;53889;50.084;8.646;2023-02-16T02:39:33;2.70;99.90
54846;DHT22;53889;50.084;8.646;2023-02-16T02:42:07;2.70;99.90
54846;DHT22;53889;50.084;8.646;2023-02-16T02:44:47;2.80;99.90
54846;DHT22;53889;50.084;8.646;2023-02-16T02:47:14;2.80;99.90
54846;DHT22;53889;50.084;8.646;2023-02-16T02:49:48;2.80;99.90
54846;DHT22;53889;50.084;8.646;2023-02-16T02:52:15;2.80;99.90
54846;DHT22;53889;50.084;8.646;2023-02-16T02:54:43;2.70;99.90
54846;DHT22;53889;50.084;8.646;2023-02-16T02:57:32;2.70;99.90
54846;DHT22;53889;50.084;8.646;2023-02-16T03:00:22;2.70;99.90
54846;DHT22;53889;50.084;8.646;2023-02-16T03:03:12;2.60;99.90
54846;DHT22;53889;50.084;8.646;2023-02-16T03:05:45;2.60;99.90
54846;DHT22;53889;50.084;8.646;2023-02-16T03:08:17;2.60;99.90
54846;DHT22;53889;50.084;8.646;2023-02-16T03:10:47;2.50;99.90
54846;DHT22;53889;50.084;8.646;2023-02-16T03:13:35;2.60;99.90
54846;DHT22;53889;50.084;8.646;2023-02-16T03:16:09;2.70;99.90
54846;DHT22;53889;50.084;8.646;2023-02-16T03:18:39;2.70;99.90
54846;DHT22;53889;50.084;8.646;2023-02-16T03:21:25;2.70;99.90
54846;DHT22;53889;50.084;8.646;2023-02-16T03:24:11;2.70;99.90
54846;DHT22;53889;50.084;8.646;2023-02-16T03:26:57;2.70;99.90
54846;DHT22;53889;50.084;8.646;2023-02-16T03:29:43;2.70;99.90
54846;DHT22;53889;50.084;8.646;2023-02-16T03:32:12;2.70;99.90
54846;DHT22;53889;50.084;8.646;2023-02-16T03:34:39;2.70;99.90
54846;DHT22;53889;50.084;8.646;2023-02-16T03:37:06;2.70;99.90
54846;DHT22;53889;50.084;8.646;2023-02-16T03:39:33;2.60;99.90
54846;DHT22;53889;50.084;8.646;2023-02-16T03:42:21;2.50;99.90
54846;DHT22;53889;50.084;8.646;2023-02-16T03:44:48;2.50;99.90
54846;DHT22;53889;50.084;8.646;2023-02-16T03:47:16;2.50;99.90
54846;DHT22;53889;50.084;8.646;2023-02-16T03:49:43;2.50;99.90
54846;DHT22;53889;50.084;8.646;2023-02-16T03:52:09;2.60;99.90
54846;DHT22;53889;50.084;8.646;2023-02-16T03:54:36;2.40;99.90
54846;DHT22;53889;50.084;8.646;2023-02-16T03:57:03;2.50;99.90
54846;DHT22;53889;50.084;8.646;2023-02-16T03:59:29;2.40;99.90
54846;DHT22;53889;50.084;8.646;2023-02-16T04:01:56;2.40;99.90
54846;DHT22;53889;50.084;8.646;2023-02-16T04:04:25;2.30;99.90
54846;DHT22;53889;50.084;8.646;2023-02-16T04:06:51;2.40;99.90
54846;DHT22;53889;50.084;8.646;2023-02-16T04:09:18;2.30;99.90
54846;DHT22;53889;50.084;8.646;2023-02-16T04:11:45;2.30;99.90
54846;DHT22;53889;50.084;8.646;2023-02-16T04:14:28;2.30;99.90
54846;DHT22;53889;50.084;8.646;2023-02-16T04:16:55;2.30;99.90
54846;DHT22;53889;50.084;8.646;2023-02-16T04:19:22;2.20;99.90
54846;DHT22;53889;50.084;8.646;2023-02-16T04:21:50;4.30;99.90
54846;DHT22;53889;50.084;8.646;2023-02-16T04:24:18;2.10;99.90
54846;DHT22;53889;50.084;8.646;2023-02-16T04:26:45;2.10;99.90
54846;DHT22;53889;50.084;8.646;2023-02-16T04:29:14;2.10;99.90
54846;DHT22;53889;50.084;8.646;2023-02-16T04:31:40;2.20;99.90
54846;DHT22;53889;50.084;8.646;2023-02-16T04:34:07;2.20;99.90
54846;DHT22;53889;50.084;8.646;2023-02-16T04:36:33;2.20;99.90
54846;DHT22;53889;50.084;8.646;2023-02-16T04:39:02;2.30;99.90
54846;DHT22;53889;50.084;8.646;2023-02-16T04:41:28;2.30;99.90
54846;DHT22;53889;50.084;8.646;2023-02-16T04:43:55;2.30;99.90
54846;DHT22;53889;50.084;8.646;2023-02-16T04:46:22;2.40;99.90
54846;DHT22;53889;50.084;8.646;2023-02-16T04:48:48;2.30;99.90
54846;DHT22;53889;50.084;8.646;2023-02-16T04:51:15;2.20;99.90
54846;DHT22;53889;50.084;8.646;2023-02-16T04:53:42;2.20;99.90
54846;DHT22;53889;50.084;8.646;2023-02-16T04:56:10;2.30;99.90
54846;DHT22;53889;50.084;8.646;2023-02-16T04:58:37;2.30;99.90
54846;DHT22;53889;50.084;8.646;2023-02-16T05:01:04;2.30;99.90
54846;DHT22;53889;50.084;8.646;2023-02-16T05:03:32;2.30;99.90
54846;DHT22;53889;50.084;8.646;2023-02-16T05:05:58;2.30;99.90
54846;DHT22;53889;50.084;8.646;2023-02-16T05:08:25;2.10;99.90
54846;DHT22;53889;50.084;8.646;2023-02-16T05:10:52;2.20;99.90
54846;DHT22;53889;50.084;8.646;2023-02-16T05:13:34;2.20;99.90
54846;DHT22;53889;50.084;8.646;2023-02-16T05:16:19;2.20;99.90
54846;DHT22;53889;50.084;8.646;2023-02-16T05:18:46;2.10;99.90
54846;DHT22;53889;50.084;8.646;2023-02-16T05:21:13;2.10;99.90
54846;DHT22;53889;50.084;8.646;2023-02-16T05:23:58;2.10;99.90
54846;DHT22;53889;50.084;8.646;2023-02-16T05:26:26;2.10;99.90
54846;DHT22;53889;50.084;8.646;2023-02-16T05:28:54;2.10;99.90
54846;DHT22;53889;50.084;8.646;2023-02-16T05:31:21;2.10;99.90
54846;DHT22;53889;50.084;8.646;2023-02-16T05:33:48;2.00;99.90
54846;DHT22;53889;50.084;8.646;2023-02-16T05:36:15;1.90;99.90
54846;DHT22;53889;50.084;8.646;2023-02-16T05:38:42;1.90;99.90
54846;DHT22;53889;50.084;8.646;2023-02-16T05:41:09;2.00;99.90
54846;DHT22;53889;50.084;8.646;2023-02-16T05:43:35;2.00;99.90
54846;DHT22;53889;50.084;8.646;2023-02-16T05:46:07;2.00;99.90
54846;DHT22;53889;50.084;8.646;2023-02-16T05:48:34;2.00;99.90
54846;DHT22;53889;50.084;8.646;2023-02-16T05:51:01;2.00;99.90
54846;DHT22;53889;50.084;8.646;2023-02-16T05:53:28;2.10;99.90
54846;DHT22;53889;50.084;8.646;2023-02-16T05:55:54;2.10;99.90
54846;DHT22;53889;50.084;8.646;2023-02-16T05:58:21;2.00;99.90
54846;DHT22;53889;50.084;8.646;2023-02-16T06:00:48;2.00;99.90
54846;DHT22;53889;50.084;8.646;2023-02-16T06:03:16;2.00;99.90
54846;DHT22;53889;50.084;8.646;2023-02-16T06:05:43;1.90;99.90
54846;DHT22;53889;50.084;8.646;2023-02-16T06:08:09;1.90;99.90
54846;DHT22;53889;50.084;8.646;2023-02-16T06:10:36;1.80;99.90
54846;DHT22;53889;50.084;8.646;2023-02-16T06:13:03;1.80;99.90
54846;DHT22;53889;50.084;8.646;2023-02-16T06:15:30;1.80;99.90
54846;DHT22;53889;50.084;8.646;2023-02-16T06:17:56;1.70;99.90
54846;DHT22;53889;50.084;8.646;2023-02-16T06:20:26;1.80;99.90
54846;DHT22;53889;50.084;8.646;2023-02-16T06:22:52;1.70;99.90
54846;DHT22;53889;50.084;8.646;2023-02-16T06:25:19;1.70;99.90
54846;DHT22;53889;50.084;8.646;2023-02-16T06:27:46;1.70;99.90
54846;DHT22;53889;50.084;8.646;2023-02-16T06:30:14;1.70;99.90
54846;DHT22;53889;50.084;8.646;2023-02-16T06:32:41;1.70;99.90
54846;DHT22;53889;50.084;8.646;2023-02-16T06:35:08;1.70;99.90
54846;DHT22;53889;50.084;8.646;2023-02-16T06:37:36;1.80;99.90
54846;DHT22;53889;50.084;8.646;2023-02-16T06:40:04;1.80;99.90
54846;DHT22;53889;50.084;8.646;2023-02-16T06:42:30;1.80;99.90
54846;DHT22;53889;50.084;8.646;2023-02-16T06:44:57;1.80;99.90
54846;DHT22;53889;50.084;8.646;2023-02-16T06:47:24;1.80;99.90
54846;DHT22;53889;50.084;8.646;2023-02-16T06:49:51;1.80;99.90
54846;DHT22;53889;50.084;8.646;2023-02-16T06:52:18;1.70;99.90
54846;DHT22;53889;50.084;8.646;2023-02-16T06:54:46;1.60;99.90
54846;DHT22;53889;50.084;8.646;2023-02-16T06:57:13;1.60;99.90
54846;DHT22;53889;50.084;8.646;2023-02-16T06:59:40;1.50;99.90
54846;DHT22;53889;50.084;8.646;2023-02-16T07:02:07;1.50;99.90
54846;DHT22;53889;50.084;8.646;2023-02-16T07:04:34;1.50;99.90
54846;DHT22;53889;50.084;8.646;2023-02-16T07:07:01;1.50;99.90
54846;DHT22;53889;50.084;8.646;2023-02-16T07:09:29;1.50;99.90
54846;DHT22;53889;50.084;8.646;2023-02-16T07:11:57;1.40;99.90
54846;DHT22;53889;50.084;8.646;2023-02-16T07:14:24;1.50;99.90
54846;DHT22;53889;50.084;8.646;2023-02-16T07:16:50;1.50;99.90
54846;DHT22;53889;50.084;8.646;2023-02-16T07:19:17;1.50;99.90
54846;DHT22;53889;50.084;8.646;2023-02-16T07:21:44;1.40;99.90
54846;DHT22;53889;50.084;8.646;2023-02-16T07:24:11;1.30;99.90
54846;DHT22;53889;50.084;8.646;2023-02-16T07:26:37;1.20;99.90
54846;DHT22;53889;50.084;8.646;2023-02-16T07:29:05;1.50;99.90
54846;DHT22;53889;50.084;8.646;2023-02-16T07:31:32;1.30;99.90
54846;DHT22;53889;50.084;8.646;2023-02-16T07:33:59;1.30;99.90
54846;DHT22;53889;50.084;8.646;2023-02-16T07:36:27;1.60;99.90
54846;DHT22;53889;50.084;8.646;2023-02-16T07:38:53;1.20;99.90
54846;DHT22;53889;50.084;8.646;2023-02-16T07:41:20;1.20;99.90
54846;DHT22;53889;50.084;8.646;2023-02-16T07:43:47;1.70;99.90
54846;DHT22;53889;50.084;8.646;2023-02-16T07:46:15;1.50;99.90
54846;DHT22;53889;50.084;8.646;2023-02-16T07:48:46;1.30;99.90
54846;DHT22;53889;50.084;8.646;2023-02-16T07:51:13;1.30;99.90
54846;DHT22;53889;50.084;8.646;2023-02-16T07:54:03;2.40;99.90
54846;DHT22;53889;50.084;8.646;2023-02-16T07:56:33;1.20;99.90
54846;DHT22;53889;50.084;8.646;2023-02-16T07:59:01;1.20;99.90
54846;DHT22;53889;50.084;8.646;2023-02-16T08:01:29;1.30;99.90
54846;DHT22;53889;50.084;8.646;2023-02-16T08:03:57;1.10;99.90
54846;DHT22;53889;50.084;8.646;2023-02-16T08:06:24;1.10;99.90
54846;DHT22;53889;50.084;8.646;2023-02-16T08:08:51;2.40;99.90
54846;DHT22;53889;50.084;8.646;2023-02-16T08:11:20;1.60;99.90
54846;DHT22;53889;50.084;8.646;2023-02-16T08:13:48;1.90;99.90
54846;DHT22;53889;50.084;8.646;2023-02-16T08:16:16;1.10;99.90
54846;DHT22;53889;50.084;8.646;2023-02-16T08:18:44;1.10;99.90
54846;DHT22;53889;50.084;8.646;2023-02-16T08:21:13;1.10;99.90
54846;DHT22;53889;50.084;8.646;2023-02-16T08:23:41;1.00;99.90
54846;DHT22;53889;50.084;8.646;2023-02-16T08:26:09;1.10;99.90
54846;DHT22;53889;50.084;8.646;2023-02-16T08:28:36;1.20;99.90
54846;DHT22;53889;50.084;8.646;2023-02-16T08:31:04;1.20;99.90
54846;DHT22;53889;50.084;8.646;2023-02-16T08:33:32;1.30;99.90
54846;DHT22;53889;50.084;8.646;2023-02-16T08:36:00;1.30;99.90
54846;DHT22;53889;50.084;8.646;2023-02-16T08:38:27;1.30;99.90
54846;DHT22;53889;50.084;8.646;2023-02-16T08:40:57;1.30;99.90
54846;DHT22;53889;50.084;8.646;2023-02-16T08:43:24;1.30;99.90
54846;DHT22;53889;50.084;8.646;2023-02-16T08:45:52;2.40;99.90
54846;DHT22;53889;50.084;8.646;2023-02-16T08:48:19;2.00;99.90
54846;DHT22;53889;50.084;8.646;2023-02-16T08:50:47;1.30;99.90
54846;DHT22;53889;50.084;8.646;2023-02-16T08:53:19;1.30;99.90
54846;DHT22;53889;50.084;8.646;2023-02-16T08:55:51;1.10;99.90
54846;DHT22;53889;50.084;8.646;2023-02-16T08:58:17;1.10;99.90
54846;DHT22;53889;50.084;8.646;2023-02-16T09:00:45;1.20;99.90
54846;DHT22;53889;50.084;8.646;2023-02-16T09:03:11;1.20;99.90
54846;DHT22;53889;50.084;8.646;2023-02-16T09:05:39;1.10;99.90
54846;DHT22;53889;50.084;8.646;2023-02-16T09:08:06;1.10;99.90
54846;DHT22;53889;50.084;8.646;2023-02-16T09:10:34;1.60;99.90
54846;DHT22;53889;50.084;8.646;2023-02-16T09:13:01;1.20;99.90
54846;DHT22;53889;50.084;8.646;2023-02-16T09:15:28;1.30;99.90
54846;DHT22;53889;50.084;8.646;2023-02-16T09:17:56;1.40;99.90
54846;DHT22;53889;50.084;8.646;2023-02-16T09:20:27;1.40;99.90
54846;DHT22;53889;50.084;8.646;2023-02-16T09:23:00;1.40;99.90
54846;DHT22;53889;50.084;8.646;2023-02-16T09:25:27;1.30;99.90
54846;DHT22;53889;50.084;8.646;2023-02-16T09:27:55;1.90;99.90
54846;DHT22;53889;50.084;8.646;2023-02-16T09:30:23;1.60;99.90
54846;DHT22;53889;50.084;8.646;2023-02-16T09:32:50;1.60;99.90
54846;DHT22;53889;50.084;8.646;2023-02-16T09:35:17;1.60;99.90
54846;DHT22;53889;50.084;8.646;2023-02-16T09:37:45;1.70;99.90
54846;DHT22;53889;50.084;8.646;2023-02-16T09:40:13;1.60;99.90
54846;DHT22;53889;50.084;8.646;2023-02-16T09:42:53;1.70;99.90
54846;DHT22;53889;50.084;8.646;2023-02-16T09:45:24;1.60;99.90
54846;DHT22;53889;50.084;8.646;2023-02-16T09:47:55;1.50;99.90
54846;DHT22;53889;50.084;8.646;2023-02-16T09:50:25;1.70;99.90
54846;DHT22;53889;50.084;8.646;2023-02-16T09:52:56;1.70;99.90
54846;DHT22;53889;50.084;8.646;2023-02-16T09:55:31;1.90;99.90
54846;DHT22;53889;50.084;8.646;2023-02-16T09:58:04;1.80;99.90
54846;DHT22;53889;50.084;8.646;2023-02-16T10:00:42;1.90;99.90
54846;DHT22;53889;50.084;8.646;2023-02-16T10:03:23;2.10;99.90
54846;DHT22;53889;50.084;8.646;2023-02-16T10:05:57;2.10;99.90
54846;DHT22;53889;50.084;8.646;2023-02-16T10:08:33;2.10;99.90
54846;DHT22;53889;50.084;8.646;2023-02-16T10:11:07;2.20;99.90
54846;DHT22;53889;50.084;8.646;2023-02-16T10:13:58;2.30;99.90
54846;DHT22;53889;50.084;8.646;2023-02-16T10:16:32;2.30;99.90
54846;DHT22;53889;50.084;8.646;2023-02-16T10:19:02;2.40;99.90
54846;DHT22;53889;50.084;8.646;2023-02-16T10:21:38;2.40;99.90
54846;DHT22;53889;50.084;8.646;2023-02-16T11:34:28;3.30;99.90
54846;DHT22;53889;50.084;8.646;2023-02-16T11:37:05;3.40;99.90
54846;DHT22;53889;50.084;8.646;2023-02-16T11:39:39;5.20;99.90
54846;DHT22;53889;50.084;8.646;2023-02-16T11:42:20;3.30;99.90
54846;DHT22;53889;50.084;8.646;2023-02-16T11:45:20;4.00;99.90
54846;DHT22;53889;50.084;8.646;2023-02-16T11:55:31;3.00;99.90
54846;DHT22;53889;50.084;8.646;2023-02-16T11:58:14;3.90;99.90
54846;DHT22;53889;50.084;8.646;2023-02-16T12:00:56;3.70;99.90
54846;DHT22;53889;50.084;8.646;2023-02-16T12:03:34;5.40;99.90
54846;DHT22;53889;50.084;8.646;2023-02-16T12:06:16;4.00;99.90
54846;DHT22;53889;50.084;8.646;2023-02-16T12:08:54;4.30;99.90
54846;DHT22;53889;50.084;8.646;2023-02-16T12:11:30;4.60;99.90
54846;DHT22;53889;50.084;8.646;2023-02-16T12:23:35;6.40;99.90
54846;DHT22;53889;50.084;8.646;2023-02-16T12:28:57;7.30;99.90
54846;DHT22;53889;50.084;8.646;2023-02-16T12:31:57;6.70;99.90
54846;DHT22;53889;50.084;8.646;2023-02-16T12:34:34;6.50;99.90
54846;DHT22;53889;50.084;8.646;2023-02-16T12:37:28;6.00;99.90
54846;DHT22;53889;50.084;8.646;2023-02-16T12:40:15;5.70;99.90
54846;DHT22;53889;50.084;8.646;2023-02-16T12:42:57;6.40;99.90
54846;DHT22;53889;50.084;8.646;2023-02-16T12:45:32;6.50;99.90
54846;DHT22;53889;50.084;8.646;2023-02-16T12:48:06;6.40;99.90
54846;DHT22;53889;50.084;8.646;2023-02-16T12:50:40;6.60;99.90
54846;DHT22;53889;50.084;8.646;2023-02-16T12:53:17;7.00;99.90
54846;DHT22;53889;50.084;8.646;2023-02-16T12:55:47;6.60;99.90
54846;DHT22;53889;50.084;8.646;2023-02-16T12:58:20;6.40;99.90
54846;DHT22;53889;50.084;8.646;2023-02-16T13:00:51;6.20;99.90
54846;DHT22;53889;50.084;8.646;2023-02-16T13:03:26;6.10;99.90
54846;DHT22;53889;50.084;8.646;2023-02-16T13:06:05;6.20;99.90
54846;DHT22;53889;50.084;8.646;2023-02-16T13:08:38;6.20;99.90
54846;DHT22;53889;50.084;8.646;2023-02-16T13:11:13;6.30;99.90
54846;DHT22;53889;50.084;8.646;2023-02-16T13:13:42;8.50;99.90
54846;DHT22;53889;50.084;8.646;2023-02-16T13:16:15;6.00;99.90
54846;DHT22;53889;50.084;8.646;2023-02-16T13:18:49;6.00;99.90
54846;DHT22;53889;50.084;8.646;2023-02-16T13:21:29;6.10;99.90
54846;DHT22;53889;50.084;8.646;2023-02-16T13:24:08;6.10;99.90
54846;DHT22;53889;50.084;8.646;2023-02-16T13:26:55;6.10;99.90
54846;DHT22;53889;50.084;8.646;2023-02-16T13:32:59;6.10;99.90
54846;DHT22;53889;50.084;8.646;2023-02-16T13:35:39;6.10;99.90
54846;DHT22;53889;50.084;8.646;2023-02-16T13:38:29;6.10;99.90
54846;DHT22;53889;50.084;8.646;2023-02-16T13:41:27;6.10;99.90
54846;DHT22;53889;50.084;8.646;2023-02-16T13:44:01;6.10;99.90
54846;DHT22;53889;50.084;8.646;2023-02-16T13:46:31;6.10;99.90
54846;DHT22;53889;50.084;8.646;2023-02-16T13:49:00;6.00;99.90
54846;DHT22;53889;50.084;8.646;2023-02-16T13:51:28;6.00;99.90
54846;DHT22;53889;50.084;8.646;2023-02-16T13:54:06;6.10;99.90
54846;DHT22;53889;50.084;8.646;2023-02-16T13:56:35;6.10;99.90
54846;DHT22;53889;50.084;8.646;2023-02-16T13:59:46;6.10;99.90
54846;DHT22;53889;50.084;8.646;2023-02-16T14:02:50;6.20;99.90
54846;DHT22;53889;50.084;8.646;2023-02-16T14:05:24;6.00;99.90
54846;DHT22;53889;50.084;8.646;2023-02-16T14:08:14;5.90;99.90
54846;DHT22;53889;50.084;8.646;2023-02-16T14:11:09;5.90;99.90
54846;DHT22;53889;50.084;8.646;2023-02-16T14:13:48;5.90;99.90
54846;DHT22;53889;50.084;8.646;2023-02-16T14:16:33;5.90;99.90
54846;DHT22;53889;50.084;8.646;2023-02-16T14:19:15;6.00;99.90
54846;DHT22;53889;50.084;8.646;2023-02-16T14:21:46;6.10;99.90
54846;DHT22;53889;50.084;8.646;2023-02-16T14:24:26;6.10;99.90
54846;DHT22;53889;50.084;8.646;2023-02-16T14:26:56;6.20;99.90
54846;DHT22;53889;50.084;8.646;2023-02-16T14:29:27;6.30;99.90
54846;DHT22;53889;50.084;8.646;2023-02-16T14:31:59;6.10;99.90
54846;DHT22;53889;50.084;8.646;2023-02-16T14:34:29;6.10;99.90
54846;DHT22;53889;50.084;8.646;2023-02-16T14:37:27;6.20;99.90
54846;DHT22;53889;50.084;8.646;2023-02-16T14:40:02;6.20;99.90
54846;DHT22;53889;50.084;8.646;2023-02-16T14:42:31;6.20;99.90
54846;DHT22;53889;50.084;8.646;2023-02-16T14:45:16;6.20;99.90
54846;DHT22;53889;50.084;8.646;2023-02-16T14:47:54;6.30;99.90
54846;DHT22;53889;50.084;8.646;2023-02-16T14:50:36;6.10;99.90
54846;DHT22;53889;50.084;8.646;2023-02-16T14:56:19;6.30;99.90
54846;DHT22;53889;50.084;8.646;2023-02-16T14:58:53;6.20;99.90
54846;DHT22;53889;50.084;8.646;2023-02-16T15:01:22;6.20;99.90
54846;DHT22;53889;50.084;8.646;2023-02-16T15:03:51;6.30;99.90
54846;DHT22;53889;50.084;8.646;2023-02-16T15:06:24;6.30;99.90
54846;DHT22;53889;50.084;8.646;2023-02-16T15:08:56;6.20;99.90
54846;DHT22;53889;50.084;8.646;2023-02-16T15:11:28;6.20;99.90
54846;DHT22;53889;50.084;8.646;2023-02-16T15:14:04;6.10;99.90
54846;DHT22;53889;50.084;8.646;2023-02-16T15:16:33;6.10;99.90
54846;DHT22;53889;50.084;8.646;2023-02-16T15:19:06;6.00;99.90
54846;DHT22;53889;50.084;8.646;2023-02-16T15:21:34;6.00;99.90
54846;DHT22;53889;50.084;8.646;2023-02-16T15:24:02;6.10;99.90
54846;DHT22;53889;50.084;8.646;2023-02-16T15:26:31;6.10;99.90
54846;DHT22;53889;50.084;8.646;2023-02-16T15:29:00;6.20;99.90
54846;DHT22;53889;50.084;8.646;2023-02-16T15:31:30;7.60;99.90
54846;DHT22;53889;50.084;8.646;2023-02-16T15:34:00;5.90;99.90
54846;DHT22;53889;50.084;8.646;2023-02-16T15:36:32;6.00;99.90
54846;DHT22;53889;50.084;8.646;2023-02-16T15:39:03;5.80;99.90
54846;DHT22;53889;50.084;8.646;2023-02-16T15:41:32;5.80;99.90
54846;DHT22;53889;50.084;8.646;2023-02-16T15:44:00;5.90;99.90
54846;DHT22;53889;50.084;8.646;2023-02-16T15:46:30;5.90;99.90
54846;DHT22;53889;50.084;8.646;2023-02-16T15:48:57;5.90;99.90
54846;DHT22;53889;50.084;8.646;2023-02-16T15:51:27;6.00;99.90
54846;DHT22;53889;50.084;8.646;2023-02-16T15:53:58;7.00;99.90
54846;DHT22;53889;50.084;8.646;2023-02-16T15:56:35;6.10;99.90
54846;DHT22;53889;50.084;8.646;2023-02-16T15:59:11;6.10;99.90
54846;DHT22;53889;50.084;8.646;2023-02-16T16:01:41;6.00;99.90
54846;DHT22;53889;50.084;8.646;2023-02-16T16:04:21;6.10;99.90
54846;DHT22;53889;50.084;8.646;2023-02-16T16:06:49;6.10;99.90
54846;DHT22;53889;50.084;8.646;2023-02-16T16:09:21;6.00;99.90
54846;DHT22;53889;50.084;8.646;2023-02-16T16:11:52;6.00;99.90
54846;DHT22;53889;50.084;8.646;2023-02-16T16:14:20;6.00;99.90
54846;DHT22;53889;50.084;8.646;2023-02-16T16:16:48;5.90;99.90
54846;DHT22;53889;50.084;8.646;2023-02-16T16:19:18;6.00;99.90
54846;DHT22;53889;50.084;8.646;2023-02-16T16:21:48;6.10;99.90
54846;DHT22;53889;50.084;8.646;2023-02-16T16:24:28;6.00;99.90
54846;DHT22;53889;50.084;8.646;2023-02-16T16:27:03;6.00;99.90
54846;DHT22;53889;50.084;8.646;2023-02-16T16:29:37;5.90;99.90
54846;DHT22;53889;50.084;8.646;2023-02-16T16:32:06;6.00;99.90
54846;DHT22;53889;50.084;8.646;2023-02-16T16:34:41;5.80;99.90
54846;DHT22;53889;50.084;8.646;2023-02-16T16:37:24;5.80;99.90
54846;DHT22;53889;50.084;8.646;2023-02-16T16:40:00;5.90;99.90
54846;DHT22;53889;50.084;8.646;2023-02-16T16:42:30;5.90;99.90
54846;DHT22;53889;50.084;8.646;2023-02-16T16:45:00;5.80;99.90
54846;DHT22;53889;50.084;8.646;2023-02-16T16:47:31;5.70;99.90
54846;DHT22;53889;50.084;8.646;2023-02-16T16:50:01;5.70;99.90
54846;DHT22;53889;50.084;8.646;2023-02-16T16:52:34;5.60;99.90
54846;DHT22;53889;50.084;8.646;2023-02-16T16:55:24;5.70;99.90
54846;DHT22;53889;50.084;8.646;2023-02-16T16:57:54;5.70;99.90
54846;DHT22;53889;50.084;8.646;2023-02-16T17:00:23;5.70;99.90
54846;DHT22;53889;50.084;8.646;2023-02-16T17:02:50;5.70;99.90
54846;DHT22;53889;50.084;8.646;2023-02-16T17:05:17;5.80;99.90
54846;DHT22;53889;50.084;8.646;2023-02-16T17:07:44;5.80;99.90
54846;DHT22;53889;50.084;8.646;2023-02-16T17:10:14;5.80;99.90
54846;DHT22;53889;50.084;8.646;2023-02-16T17:12:43;5.80;99.90
54846;DHT22;53889;50.084;8.646;2023-02-16T17:18:02;5.70;99.90
54846;DHT22;53889;50.084;8.646;2023-02-16T17:20:29;5.70;99.90
54846;DHT22;53889;50.084;8.646;2023-02-16T17:22:56;5.70;99.90
54846;DHT22;53889;50.084;8.646;2023-02-16T17:25:29;5.50;99.90
54846;DHT22;53889;50.084;8.646;2023-02-16T17:27:56;5.60;99.90
54846;DHT22;53889;50.084;8.646;2023-02-16T17:30:24;5.60;99.90
54846;DHT22;53889;50.084;8.646;2023-02-16T17:32:51;5.60;99.90
54846;DHT22;53889;50.084;8.646;2023-02-16T17:35:18;5.60;99.90
54846;DHT22;53889;50.084;8.646;2023-02-16T17:37:45;5.60;99.90
54846;DHT22;53889;50.084;8.646;2023-02-16T17:40:14;5.60;99.90
54846;DHT22;53889;50.084;8.646;2023-02-16T17:42:42;5.50;99.90
54846;DHT22;53889;50.084;8.646;2023-02-16T17:45:09;5.60;99.90
54846;DHT22;53889;50.084;8.646;2023-02-16T17:47:37;5.50;99.90
54846;DHT22;53889;50.084;8.646;2023-02-16T17:50:04;5.50;99.90
54846;DHT22;53889;50.084;8.646;2023-02-16T17:52:31;5.50;99.90
54846;DHT22;53889;50.084;8.646;2023-02-16T17:54:58;5.50;99.90
54846;DHT22;53889;50.084;8.646;2023-02-16T17:57:24;5.50;99.90
54846;DHT22;53889;50.084;8.646;2023-02-16T17:59:52;5.50;99.90